sensor_id;sensor_type;location;lat;lon;timestamp;noise_LAeq;noise_LA_min;noise_LA_max;noise_LA01;noise_LA95
72858;Laerm;62742;52.136;4.500;2023-03-23T00:00:10;44.56;42.01;48.35;;
72858;Laerm;62742;52.136;4.500;2023-03-23T00:02:36;44.58;41.28;49.15;;
72858;Laerm;62742;52.136;4.500;2023-03-23T00:05:07;44.39;41.05;55.08;;
72858;Laerm;62742;52.136;4.500;2023-03-23T00:07:34;43.91;40.83;46.49;;
72858;Laerm;62742;52.136;4.500;2023-03-23T00:10:01;43.98;41.38;46.63;;
72858;Laerm;62742;52.136;4.500;2023-03-23T00:12:30;44.09;40.93;48.39;;
72858;Laerm;62742;52.136;4.500;2023-03-23T00:15:04;44.16;41.17;48.45;;
72858;Laerm;62742;52.136;4.500;2023-03-23T00:17:31;44.39;40.48;52.96;;
72858;Laerm;62742;52.136;4.500;2023-03-23T00:19:59;44.34;41.20;53.53;;
72858;Laerm;62742;52.136;4.500;2023-03-23T00:22:28;44.09;40.78;47.24;;
72858;Laerm;62742;52.136;4.500;2023-03-23T00:24:55;44.21;41.30;46.95;;
72858;Laerm;62742;52.136;4.500;2023-03-23T00:27:22;43.90;41.05;52.50;;
72858;Laerm;62742;52.136;4.500;2023-03-23T00:29:49;43.97;40.99;46.66;;
72858;Laerm;62742;52.136;4.500;2023-03-23T00:32:21;44.15;41.34;49.82;;
72858;Laerm;62742;52.136;4.500;2023-03-23T00:34:55;44.61;40.69;52.72;;
72858;Laerm;62742;52.136;4.500;2023-03-23T00:37:25;44.21;41.57;47.53;;
72858;Laerm;62742;52.136;4.500;2023-03-23T00:39:51;44.46;41.28;55.65;;
72858;Laerm;62742;52.136;4.500;2023-03-23T00:42:23;45.91;41.60;51.94;;
72858;Laerm;62742;52.136;4.500;2023-03-23T00:44:50;43.93;40.38;46.66;;
72858;Laerm;62742;52.136;4.500;2023-03-23T00:47:16;44.37;41.18;48.76;;
72858;Laerm;62742;52.136;4.500;2023-03-23T00:49:43;44.98;40.67;49.64;;
72858;Laerm;62742;52.136;4.500;2023-03-23T00:52:09;45.52;40.77;55.38;;
72858;Laerm;62742;52.136;4.500;2023-03-23T00:54:36;46.02;41.01;56.10;;
72858;Laerm;62742;52.136;4.500;2023-03-23T00:57:04;44.93;41.79;50.29;;
72858;Laerm;62742;52.136;4.500;2023-03-23T00:59:31;44.91;41.61;49.90;;
72858;Laerm;62742;52.136;4.500;2023-03-23T01:01:57;44.64;41.53;53.07;;
72858;Laerm;62742;52.136;4.500;2023-03-23T01:04:23;45.29;41.03;50.50;;
72858;Laerm;62742;52.136;4.500;2023-03-23T01:06:50;45.22;41.13;49.81;;
72858;Laerm;62742;52.136;4.500;2023-03-23T01:09:19;44.82;41.28;49.60;;
72858;Laerm;62742;52.136;4.500;2023-03-23T01:11:49;44.55;41.49;52.38;;
72858;Laerm;62742;52.136;4.500;2023-03-23T01:14:17;44.50;41.47;47.50;;
72858;Laerm;62742;52.136;4.500;2023-03-23T01:16:44;45.11;42.48;49.56;;
72858;Laerm;62742;52.136;4.500;2023-03-23T01:19:10;44.95;42.20;48.55;;
72858;Laerm;62742;52.136;4.500;2023-03-23T01:21:37;44.90;42.19;51.35;;
72858;Laerm;62742;52.136;4.500;2023-03-23T01:24:03;45.05;41.77;54.08;;
72858;Laerm;62742;52.136;4.500;2023-03-23T01:26:30;44.66;41.32;49.22;;
72858;Laerm;62742;52.136;4.500;2023-03-23T01:28:56;44.80;42.42;53.46;;
72858;Laerm;62742;52.136;4.500;2023-03-23T01:31:24;44.46;41.75;46.41;;
72858;Laerm;62742;52.136;4.500;2023-03-23T01:33:51;44.64;42.14;47.05;;
72858;Laerm;62742;52.136;4.500;2023-03-23T01:36:25;44.43;41.87;46.99;;
72858;Laerm;62742;52.136;4.500;2023-03-23T01:38:54;44.58;42.06;54.31;;
72858;Laerm;62742;52.136;4.500;2023-03-23T01:41:21;44.46;41.44;49.50;;
72858;Laerm;62742;52.136;4.500;2023-03-23T01:44:59;44.42;41.37;52.93;;
72858;Laerm;62742;52.136;4.500;2023-03-23T01:46:53;44.91;41.74;48.14;;
72858;Laerm;62742;52.136;4.500;2023-03-23T01:49:43;44.87;39.87;48.39;;
72858;Laerm;62742;52.136;4.500;2023-03-23T01:52:17;44.78;41.77;53.45;;
72858;Laerm;62742;52.136;4.500;2023-03-23T01:54:48;44.39;41.88;46.79;;
72858;Laerm;62742;52.136;4.500;2023-03-23T01:57:17;44.62;41.85;47.86;;
72858;Laerm;62742;52.136;4.500;2023-03-23T01:59:49;44.10;40.96;46.42;;
72858;Laerm;62742;52.136;4.500;2023-03-23T02:02:17;44.33;41.06;46.69;;
72858;Laerm;62742;52.136;4.500;2023-03-23T02:04:44;44.68;42.10;47.73;;
72858;Laerm;62742;52.136;4.500;2023-03-23T02:07:12;44.74;42.26;47.50;;
72858;Laerm;62742;52.136;4.500;2023-03-23T02:09:39;44.39;41.75;52.39;;
72858;Laerm;62742;52.136;4.500;2023-03-23T02:12:06;44.70;41.88;46.77;;
72858;Laerm;62742;52.136;4.500;2023-03-23T02:14:32;44.67;42.28;46.88;;
72858;Laerm;62742;52.136;4.500;2023-03-23T02:17:14;44.88;41.47;47.59;;
72858;Laerm;62742;52.136;4.500;2023-03-23T02:22:37;44.65;40.37;52.99;;
72858;Laerm;62742;52.136;4.500;2023-03-23T02:28:00;44.22;40.99;46.68;;
72858;Laerm;62742;52.136;4.500;2023-03-23T02:30:49;44.20;41.33;46.65;;
72858;Laerm;62742;52.136;4.500;2023-03-23T02:33:36;44.54;41.79;53.74;;
72858;Laerm;62742;52.136;4.500;2023-03-23T02:41:31;44.66;41.83;47.40;;
72858;Laerm;62742;52.136;4.500;2023-03-23T02:43:58;44.59;42.09;47.73;;
72858;Laerm;62742;52.136;4.500;2023-03-23T02:46:27;44.32;41.77;47.22;;
72858;Laerm;62742;52.136;4.500;2023-03-23T02:48:55;44.14;41.59;50.23;;
72858;Laerm;62742;52.136;4.500;2023-03-23T02:51:24;44.58;41.56;48.38;;
72858;Laerm;62742;52.136;4.500;2023-03-23T02:53:53;44.37;41.10;47.19;;
72858;Laerm;62742;52.136;4.500;2023-03-23T02:56:23;44.48;41.08;47.80;;
72858;Laerm;62742;52.136;4.500;2023-03-23T02:58:50;44.68;41.37;53.19;;
72858;Laerm;62742;52.136;4.500;2023-03-23T03:03:52;44.14;40.23;51.69;;
72858;Laerm;62742;52.136;4.500;2023-03-23T03:12:37;44.51;40.96;48.13;;
72858;Laerm;62742;52.136;4.500;2023-03-23T03:17:41;44.24;40.48;47.90;;
72858;Laerm;62742;52.136;4.500;2023-03-23T03:20:14;44.82;41.50;49.04;;
72858;Laerm;62742;52.136;4.500;2023-03-23T03:22:43;44.63;41.19;47.81;;
72858;Laerm;62742;52.136;4.500;2023-03-23T03:25:11;44.75;40.49;53.79;;
72858;Laerm;62742;52.136;4.500;2023-03-23T03:27:41;45.43;41.01;50.34;;
72858;Laerm;62742;52.136;4.500;2023-03-23T03:30:11;45.03;40.79;49.89;;
72858;Laerm;62742;52.136;4.500;2023-03-23T03:32:44;44.80;42.02;48.92;;
72858;Laerm;62742;52.136;4.500;2023-03-23T03:35:12;45.20;40.96;51.89;;
72858;Laerm;62742;52.136;4.500;2023-03-23T03:37:39;44.72;40.29;51.57;;
72858;Laerm;62742;52.136;4.500;2023-03-23T03:40:12;44.25;40.65;47.62;;
72858;Laerm;62742;52.136;4.500;2023-03-23T03:42:40;44.64;41.06;48.63;;
72858;Laerm;62742;52.136;4.500;2023-03-23T03:45:09;44.05;40.16;48.14;;
72858;Laerm;62742;52.136;4.500;2023-03-23T03:47:36;43.64;39.17;48.35;;
72858;Laerm;62742;52.136;4.500;2023-03-23T03:50:03;43.81;40.20;50.23;;
72858;Laerm;62742;52.136;4.500;2023-03-23T03:52:29;44.59;40.00;49.55;;
72858;Laerm;62742;52.136;4.500;2023-03-23T03:54:55;44.82;40.61;49.96;;
72858;Laerm;62742;52.136;4.500;2023-03-23T03:57:22;44.83;41.48;49.81;;
72858;Laerm;62742;52.136;4.500;2023-03-23T03:59:48;45.30;41.02;52.43;;
72858;Laerm;62742;52.136;4.500;2023-03-23T04:02:15;45.69;41.12;51.22;;
72858;Laerm;62742;52.136;4.500;2023-03-23T04:04:47;46.44;42.20;51.00;;
72858;Laerm;62742;52.136;4.500;2023-03-23T04:07:14;46.23;42.33;50.86;;
72858;Laerm;62742;52.136;4.500;2023-03-23T04:09:45;45.51;41.40;49.79;;
72858;Laerm;62742;52.136;4.500;2023-03-23T04:12:14;45.82;41.63;50.25;;
72858;Laerm;62742;52.136;4.500;2023-03-23T04:14:41;45.68;41.64;49.42;;
72858;Laerm;62742;52.136;4.500;2023-03-23T04:17:07;45.78;42.22;51.32;;
72858;Laerm;62742;52.136;4.500;2023-03-23T04:19:36;45.71;42.56;49.79;;
72858;Laerm;62742;52.136;4.500;2023-03-23T04:22:04;45.72;42.34;49.15;;
72858;Laerm;62742;52.136;4.500;2023-03-23T04:24:31;45.82;42.10;49.95;;
72858;Laerm;62742;52.136;4.500;2023-03-23T04:26:59;45.19;41.60;49.37;;
72858;Laerm;62742;52.136;4.500;2023-03-23T04:29:26;46.03;42.23;53.02;;
72858;Laerm;62742;52.136;4.500;2023-03-23T04:31:52;46.02;41.88;50.74;;
72858;Laerm;62742;52.136;4.500;2023-03-23T04:34:22;45.64;41.54;50.64;;
72858;Laerm;62742;52.136;4.500;2023-03-23T04:36:49;45.62;42.16;49.60;;
72858;Laerm;62742;52.136;4.500;2023-03-23T04:39:15;45.68;41.62;52.75;;
72858;Laerm;62742;52.136;4.500;2023-03-23T04:41:41;45.85;42.41;49.33;;
72858;Laerm;62742;52.136;4.500;2023-03-23T04:44:08;45.69;42.70;48.97;;
72858;Laerm;62742;52.136;4.500;2023-03-23T04:46:34;45.83;42.95;49.15;;
72858;Laerm;62742;52.136;4.500;2023-03-23T04:49:00;46.11;41.59;52.05;;
72858;Laerm;62742;52.136;4.500;2023-03-23T04:51:28;45.26;41.57;48.91;;
72858;Laerm;62742;52.136;4.500;2023-03-23T04:53:55;44.97;41.15;53.08;;
72858;Laerm;62742;52.136;4.500;2023-03-23T04:56:22;44.75;41.38;48.74;;
72858;Laerm;62742;52.136;4.500;2023-03-23T04:58:48;44.32;39.22;51.26;;
72858;Laerm;62742;52.136;4.500;2023-03-23T05:01:14;44.60;40.44;50.84;;
72858;Laerm;62742;52.136;4.500;2023-03-23T05:03:41;44.62;40.94;49.19;;
72858;Laerm;62742;52.136;4.500;2023-03-23T05:06:07;44.69;41.73;48.17;;
72858;Laerm;62742;52.136;4.500;2023-03-23T05:08:33;44.60;41.51;49.17;;
72858;Laerm;62742;52.136;4.500;2023-03-23T05:11:00;44.64;41.74;49.02;;
72858;Laerm;62742;52.136;4.500;2023-03-23T05:13:29;44.92;41.03;53.45;;
72858;Laerm;62742;52.136;4.500;2023-03-23T05:15:55;44.82;41.78;49.77;;
72858;Laerm;62742;52.136;4.500;2023-03-23T05:18:22;44.76;41.70;48.18;;
72858;Laerm;62742;52.136;4.500;2023-03-23T05:20:48;44.35;41.32;49.22;;
72858;Laerm;62742;52.136;4.500;2023-03-23T05:23:15;45.02;41.54;52.30;;
72858;Laerm;62742;52.136;4.500;2023-03-23T05:25:41;45.24;41.53;50.00;;
72858;Laerm;62742;52.136;4.500;2023-03-23T05:28:11;45.28;41.40;51.46;;
72858;Laerm;62742;52.136;4.500;2023-03-23T05:30:38;44.28;41.21;48.92;;
72858;Laerm;62742;52.136;4.500;2023-03-23T05:33:05;44.42;40.96;48.19;;
72858;Laerm;62742;52.136;4.500;2023-03-23T05:35:32;44.76;41.68;48.75;;
72858;Laerm;62742;52.136;4.500;2023-03-23T05:37:58;44.37;41.24;49.08;;
72858;Laerm;62742;52.136;4.500;2023-03-23T05:40:25;45.91;41.39;51.54;;
72858;Laerm;62742;52.136;4.500;2023-03-23T05:42:53;44.36;39.85;51.88;;
72858;Laerm;62742;52.136;4.500;2023-03-23T05:45:21;44.04;40.04;47.97;;
72858;Laerm;62742;52.136;4.500;2023-03-23T05:47:48;44.62;40.81;51.52;;
72858;Laerm;62742;52.136;4.500;2023-03-23T05:50:15;44.31;41.12;48.11;;
72858;Laerm;62742;52.136;4.500;2023-03-23T05:52:41;45.66;41.40;50.75;;
72858;Laerm;62742;52.136;4.500;2023-03-23T05:55:09;45.23;41.66;50.85;;
72858;Laerm;62742;52.136;4.500;2023-03-23T05:57:35;45.50;41.97;50.62;;
72858;Laerm;62742;52.136;4.500;2023-03-23T06:00:03;44.25;40.71;49.00;;
72858;Laerm;62742;52.136;4.500;2023-03-23T06:02:38;44.49;40.37;49.31;;
72858;Laerm;62742;52.136;4.500;2023-03-23T06:05:06;45.76;41.75;50.39;;
72858;Laerm;62742;52.136;4.500;2023-03-23T06:07:32;45.40;41.27;51.04;;
72858;Laerm;62742;52.136;4.500;2023-03-23T06:09:59;46.82;41.99;51.67;;
72858;Laerm;62742;52.136;4.500;2023-03-23T06:12:26;48.46;40.93;53.68;;
72858;Laerm;62742;52.136;4.500;2023-03-23T06:14:52;44.52;40.20;49.44;;
72858;Laerm;62742;52.136;4.500;2023-03-23T06:17:19;44.73;41.55;49.81;;
72858;Laerm;62742;52.136;4.500;2023-03-23T06:19:45;44.48;41.65;49.12;;
72858;Laerm;62742;52.136;4.500;2023-03-23T06:22:13;45.07;41.53;50.59;;
72858;Laerm;62742;52.136;4.500;2023-03-23T06:24:40;45.12;41.62;50.82;;
72858;Laerm;62742;52.136;4.500;2023-03-23T06:27:06;45.00;41.26;50.38;;
72858;Laerm;62742;52.136;4.500;2023-03-23T06:29:33;44.73;41.10;50.54;;
72858;Laerm;62742;52.136;4.500;2023-03-23T06:32:01;44.78;40.97;51.28;;
72858;Laerm;62742;52.136;4.500;2023-03-23T06:34:29;45.20;41.24;50.93;;
72858;Laerm;62742;52.136;4.500;2023-03-23T06:36:56;44.53;41.45;50.65;;
72858;Laerm;62742;52.136;4.500;2023-03-23T06:39:23;45.53;41.61;51.40;;
72858;Laerm;62742;52.136;4.500;2023-03-23T06:41:51;45.48;41.85;49.54;;
72858;Laerm;62742;52.136;4.500;2023-03-23T06:44:17;45.14;41.93;52.89;;
72858;Laerm;62742;52.136;4.500;2023-03-23T06:46:44;45.28;41.79;50.57;;
72858;Laerm;62742;52.136;4.500;2023-03-23T06:49:10;47.18;42.85;51.39;;
72858;Laerm;62742;52.136;4.500;2023-03-23T06:51:36;47.16;41.62;51.90;;
72858;Laerm;62742;52.136;4.500;2023-03-23T06:54:04;46.74;41.23;52.09;;
72858;Laerm;62742;52.136;4.500;2023-03-23T06:56:31;46.19;42.95;50.85;;
72858;Laerm;62742;52.136;4.500;2023-03-23T06:58:57;48.04;42.44;52.69;;
72858;Laerm;62742;52.136;4.500;2023-03-23T07:01:24;47.28;42.42;51.07;;
72858;Laerm;62742;52.136;4.500;2023-03-23T07:03:50;47.41;42.64;51.89;;
72858;Laerm;62742;52.136;4.500;2023-03-23T07:06:16;47.34;42.28;51.43;;
72858;Laerm;62742;52.136;4.500;2023-03-23T07:08:42;48.32;43.74;53.14;;
72858;Laerm;62742;52.136;4.500;2023-03-23T07:11:08;48.73;44.49;52.21;;
72858;Laerm;62742;52.136;4.500;2023-03-23T07:13:36;48.03;43.74;51.94;;
72858;Laerm;62742;52.136;4.500;2023-03-23T07:16:05;49.15;44.54;53.38;;
72858;Laerm;62742;52.136;4.500;2023-03-23T07:18:32;49.83;44.81;53.60;;
72858;Laerm;62742;52.136;4.500;2023-03-23T07:20:59;47.40;43.17;53.44;;
72858;Laerm;62742;52.136;4.500;2023-03-23T07:23:25;46.80;43.32;51.74;;
72858;Laerm;62742;52.136;4.500;2023-03-23T07:25:52;47.14;43.53;53.05;;
72858;Laerm;62742;52.136;4.500;2023-03-23T07:28:19;47.18;43.09;52.28;;
72858;Laerm;62742;52.136;4.500;2023-03-23T07:30:46;48.51;43.25;52.19;;
72858;Laerm;62742;52.136;4.500;2023-03-23T07:33:12;47.59;43.43;52.03;;
72858;Laerm;62742;52.136;4.500;2023-03-23T07:35:39;47.94;43.81;52.82;;
72858;Laerm;62742;52.136;4.500;2023-03-23T07:38:06;48.89;44.22;53.29;;
72858;Laerm;62742;52.136;4.500;2023-03-23T07:40:33;48.09;44.08;52.05;;
72858;Laerm;62742;52.136;4.500;2023-03-23T07:43:01;47.35;43.00;51.89;;
72858;Laerm;62742;52.136;4.500;2023-03-23T07:45:28;47.98;43.81;53.68;;
72858;Laerm;62742;52.136;4.500;2023-03-23T07:47:54;49.44;44.04;53.00;;
72858;Laerm;62742;52.136;4.500;2023-03-23T07:50:22;46.01;43.02;51.18;;
72858;Laerm;62742;52.136;4.500;2023-03-23T07:52:51;45.84;43.13;51.95;;
72858;Laerm;62742;52.136;4.500;2023-03-23T07:55:19;45.67;42.88;51.77;;
72858;Laerm;62742;52.136;4.500;2023-03-23T07:57:47;46.13;43.30;53.20;;
72858;Laerm;62742;52.136;4.500;2023-03-23T08:00:17;45.54;42.65;49.44;;
72858;Laerm;62742;52.136;4.500;2023-03-23T08:02:54;46.15;42.69;51.18;;
72858;Laerm;62742;52.136;4.500;2023-03-23T08:05:24;46.88;42.82;51.68;;
72858;Laerm;62742;52.136;4.500;2023-03-23T08:07:53;46.21;42.46;52.94;;
72858;Laerm;62742;52.136;4.500;2023-03-23T08:10:22;45.91;43.09;50.33;;
72858;Laerm;62742;52.136;4.500;2023-03-23T08:12:52;46.16;42.72;51.89;;
72858;Laerm;62742;52.136;4.500;2023-03-23T08:15:19;47.40;43.27;52.48;;
72858;Laerm;62742;52.136;4.500;2023-03-23T08:17:48;46.69;43.22;51.73;;
72858;Laerm;62742;52.136;4.500;2023-03-23T08:20:15;47.06;43.15;53.21;;
72858;Laerm;62742;52.136;4.500;2023-03-23T08:22:45;45.51;42.55;52.19;;
72858;Laerm;62742;52.136;4.500;2023-03-23T08:25:13;46.05;43.34;52.93;;
72858;Laerm;62742;52.136;4.500;2023-03-23T08:27:40;46.42;42.98;52.33;;
72858;Laerm;62742;52.136;4.500;2023-03-23T08:30:13;46.22;43.27;53.86;;
72858;Laerm;62742;52.136;4.500;2023-03-23T08:32:40;45.92;42.79;51.05;;
72858;Laerm;62742;52.136;4.500;2023-03-23T08:35:08;45.94;42.73;53.24;;
72858;Laerm;62742;52.136;4.500;2023-03-23T08:37:35;46.00;43.00;51.26;;
72858;Laerm;62742;52.136;4.500;2023-03-23T08:40:03;46.72;42.86;53.82;;
72858;Laerm;62742;52.136;4.500;2023-03-23T08:42:34;46.76;42.35;53.44;;
72858;Laerm;62742;52.136;4.500;2023-03-23T08:45:00;46.68;42.62;51.31;;
72858;Laerm;62742;52.136;4.500;2023-03-23T08:47:26;46.68;43.00;53.09;;
72858;Laerm;62742;52.136;4.500;2023-03-23T08:49:53;46.83;42.53;51.80;;
72858;Laerm;62742;52.136;4.500;2023-03-23T08:52:19;45.99;42.35;53.89;;
72858;Laerm;62742;52.136;4.500;2023-03-23T08:54:46;46.04;42.63;52.14;;
72858;Laerm;62742;52.136;4.500;2023-03-23T08:57:14;46.72;42.95;53.62;;
72858;Laerm;62742;52.136;4.500;2023-03-23T08:59:44;46.30;42.68;54.88;;
72858;Laerm;62742;52.136;4.500;2023-03-23T09:02:11;45.81;42.34;51.92;;
72858;Laerm;62742;52.136;4.500;2023-03-23T09:04:40;46.64;42.63;51.81;;
72858;Laerm;62742;52.136;4.500;2023-03-23T09:07:10;45.79;42.31;53.84;;
72858;Laerm;62742;52.136;4.500;2023-03-23T09:09:38;45.81;42.40;53.35;;
72858;Laerm;62742;52.136;4.500;2023-03-23T09:12:09;45.17;42.30;54.09;;
72858;Laerm;62742;52.136;4.500;2023-03-23T09:14:37;45.41;41.47;54.54;;
72858;Laerm;62742;52.136;4.500;2023-03-23T09:17:04;45.63;42.02;55.24;;
72858;Laerm;62742;52.136;4.500;2023-03-23T09:19:33;45.63;42.13;54.02;;
72858;Laerm;62742;52.136;4.500;2023-03-23T09:22:00;45.92;41.95;53.74;;
72858;Laerm;62742;52.136;4.500;2023-03-23T09:24:26;45.88;42.10;54.95;;
72858;Laerm;62742;52.136;4.500;2023-03-23T09:26:53;45.56;42.20;54.08;;
72858;Laerm;62742;52.136;4.500;2023-03-23T09:29:19;46.27;42.37;54.26;;
72858;Laerm;62742;52.136;4.500;2023-03-23T09:31:47;46.50;42.28;53.02;;
72858;Laerm;62742;52.136;4.500;2023-03-23T09:34:13;47.92;42.69;52.48;;
72858;Laerm;62742;52.136;4.500;2023-03-23T09:36:42;46.75;42.40;52.03;;
72858;Laerm;62742;52.136;4.500;2023-03-23T09:39:09;46.65;42.64;51.19;;
72858;Laerm;62742;52.136;4.500;2023-03-23T09:42:07;46.98;42.65;52.42;;
72858;Laerm;62742;52.136;4.500;2023-03-23T09:45:09;46.55;43.27;52.26;;
72858;Laerm;62742;52.136;4.500;2023-03-23T09:50:29;46.38;42.35;51.52;;
72858;Laerm;62742;52.136;4.500;2023-03-23T09:53:05;46.98;43.71;51.65;;
72858;Laerm;62742;52.136;4.500;2023-03-23T09:55:35;47.13;43.97;51.88;;
72858;Laerm;62742;52.136;4.500;2023-03-23T09:58:28;47.39;44.19;51.65;;
72858;Laerm;62742;52.136;4.500;2023-03-23T10:03:31;49.89;43.68;54.57;;
72858;Laerm;62742;52.136;4.500;2023-03-23T10:05:59;48.83;45.01;54.57;;
72858;Laerm;62742;52.136;4.500;2023-03-23T10:08:27;48.27;44.23;53.30;;
72858;Laerm;62742;52.136;4.500;2023-03-23T10:16:25;47.26;44.03;52.65;;
72858;Laerm;62742;52.136;4.500;2023-03-23T10:19:08;47.96;43.73;56.88;;
72858;Laerm;62742;52.136;4.500;2023-03-23T10:21:42;48.56;44.37;53.33;;
72858;Laerm;62742;52.136;4.500;2023-03-23T10:24:15;48.26;44.67;54.18;;
72858;Laerm;62742;52.136;4.500;2023-03-23T10:27:38;49.23;44.33;54.38;;
72858;Laerm;62742;52.136;4.500;2023-03-23T10:32:52;48.50;44.34;54.54;;
72858;Laerm;62742;52.136;4.500;2023-03-23T10:35:35;49.35;44.97;57.45;;
72858;Laerm;62742;52.136;4.500;2023-03-23T10:38:27;50.04;45.42;58.55;;
72858;Laerm;62742;52.136;4.500;2023-03-23T10:41:19;49.14;45.53;55.49;;
72858;Laerm;62742;52.136;4.500;2023-03-23T10:43:45;49.27;44.50;54.66;;
72858;Laerm;62742;52.136;4.500;2023-03-23T10:48:54;49.91;44.96;54.39;;
72858;Laerm;62742;52.136;4.500;2023-03-23T10:51:31;50.84;44.72;56.42;;
72858;Laerm;62742;52.136;4.500;2023-03-23T10:54:01;49.91;44.86;55.47;;
72858;Laerm;62742;52.136;4.500;2023-03-23T10:56:35;49.55;44.44;55.51;;
72858;Laerm;62742;52.136;4.500;2023-03-23T10:59:20;49.86;45.13;59.20;;
72858;Laerm;62742;52.136;4.500;2023-03-23T11:01:50;48.67;45.02;56.08;;
72858;Laerm;62742;52.136;4.500;2023-03-23T11:04:18;48.87;44.47;53.80;;
72858;Laerm;62742;52.136;4.500;2023-03-23T11:06:48;49.32;44.88;54.69;;
72858;Laerm;62742;52.136;4.500;2023-03-23T11:09:19;49.17;45.05;55.03;;
72858;Laerm;62742;52.136;4.500;2023-03-23T11:11:54;49.95;45.25;56.59;;
72858;Laerm;62742;52.136;4.500;2023-03-23T11:14:31;49.52;44.94;54.53;;
72858;Laerm;62742;52.136;4.500;2023-03-23T11:17:01;50.28;45.29;58.83;;
72858;Laerm;62742;52.136;4.500;2023-03-23T11:19:33;50.25;45.25;54.59;;
72858;Laerm;62742;52.136;4.500;2023-03-23T11:24:44;48.92;44.71;54.70;;
72858;Laerm;62742;52.136;4.500;2023-03-23T11:27:13;49.04;45.13;54.16;;
72858;Laerm;62742;52.136;4.500;2023-03-23T11:30:10;48.53;45.07;54.80;;
72858;Laerm;62742;52.136;4.500;2023-03-23T11:32:42;48.85;44.62;54.99;;
72858;Laerm;62742;52.136;4.500;2023-03-23T11:35:18;48.41;44.49;55.62;;
72858;Laerm;62742;52.136;4.500;2023-03-23T11:37:52;48.57;44.93;54.58;;
72858;Laerm;62742;52.136;4.500;2023-03-23T11:40:23;49.18;44.05;55.94;;
72858;Laerm;62742;52.136;4.500;2023-03-23T11:50:59;47.78;44.10;53.81;;
72858;Laerm;62742;52.136;4.500;2023-03-23T11:56:13;49.16;44.55;54.74;;
72858;Laerm;62742;52.136;4.500;2023-03-23T11:58:41;48.99;44.45;55.98;;
72858;Laerm;62742;52.136;4.500;2023-03-23T12:01:21;50.03;43.71;55.52;;
72858;Laerm;62742;52.136;4.500;2023-03-23T12:10:23;51.40;44.80;55.19;;
72858;Laerm;62742;52.136;4.500;2023-03-23T12:16:34;50.60;45.31;56.61;;
72858;Laerm;62742;52.136;4.500;2023-03-23T12:19:09;51.08;45.49;57.48;;
72858;Laerm;62742;52.136;4.500;2023-03-23T12:21:43;54.56;46.74;62.45;;
72858;Laerm;62742;52.136;4.500;2023-03-23T12:33:25;52.13;46.06;57.13;;
72858;Laerm;62742;52.136;4.500;2023-03-23T12:36:14;52.62;44.89;57.12;;
72858;Laerm;62742;52.136;4.500;2023-03-23T12:38:54;52.11;45.63;56.82;;
72858;Laerm;62742;52.136;4.500;2023-03-23T12:44:37;51.19;45.65;56.28;;
72858;Laerm;62742;52.136;4.500;2023-03-23T12:52:56;51.29;45.61;58.31;;
72858;Laerm;62742;52.136;4.500;2023-03-23T12:58:23;54.68;46.50;60.20;;
72858;Laerm;62742;52.136;4.500;2023-03-23T13:03:58;53.58;46.93;57.70;;
72858;Laerm;62742;52.136;4.500;2023-03-23T13:06:27;54.13;46.39;58.20;;
72858;Laerm;62742;52.136;4.500;2023-03-23T13:09:02;50.88;46.28;56.38;;
72858;Laerm;62742;52.136;4.500;2023-03-23T13:11:34;50.08;45.47;55.94;;
72858;Laerm;62742;52.136;4.500;2023-03-23T13:17:01;53.01;45.99;57.81;;
72858;Laerm;62742;52.136;4.500;2023-03-23T13:19:59;51.22;44.38;55.66;;
72858;Laerm;62742;52.136;4.500;2023-03-23T13:25:15;49.52;44.07;54.44;;
72858;Laerm;62742;52.136;4.500;2023-03-23T13:27:43;50.46;44.36;56.34;;
72858;Laerm;62742;52.136;4.500;2023-03-23T13:30:20;48.86;44.88;55.41;;
72858;Laerm;62742;52.136;4.500;2023-03-23T13:32:51;49.11;44.50;54.82;;
72858;Laerm;62742;52.136;4.500;2023-03-23T13:35:19;51.33;44.90;56.01;;
72858;Laerm;62742;52.136;4.500;2023-03-23T13:37:49;49.46;44.99;54.70;;
72858;Laerm;62742;52.136;4.500;2023-03-23T13:40:25;50.06;44.89;55.08;;
72858;Laerm;62742;52.136;4.500;2023-03-23T13:42:56;50.74;43.78;55.76;;
72858;Laerm;62742;52.136;4.500;2023-03-23T13:48:19;48.46;43.41;56.79;;
72858;Laerm;62742;52.136;4.500;2023-03-23T13:53:35;47.09;43.29;53.42;;
72858;Laerm;62742;52.136;4.500;2023-03-23T13:56:39;47.97;43.67;54.74;;
72858;Laerm;62742;52.136;4.500;2023-03-23T13:59:35;49.14;43.82;55.18;;
72858;Laerm;62742;52.136;4.500;2023-03-23T14:02:37;48.74;43.90;54.91;;
72858;Laerm;62742;52.136;4.500;2023-03-23T14:07:58;48.13;44.06;54.92;;
72858;Laerm;62742;52.136;4.500;2023-03-23T14:10:43;51.22;44.66;58.71;;
72858;Laerm;62742;52.136;4.500;2023-03-23T14:15:45;51.88;44.63;56.83;;
72858;Laerm;62742;52.136;4.500;2023-03-23T14:18:22;48.76;43.84;54.25;;
72858;Laerm;62742;52.136;4.500;2023-03-23T14:20:49;48.50;43.90;54.67;;
72858;Laerm;62742;52.136;4.500;2023-03-23T14:23:18;49.23;43.42;56.10;;
72858;Laerm;62742;52.136;4.500;2023-03-23T14:25:55;51.42;44.91;56.22;;
72858;Laerm;62742;52.136;4.500;2023-03-23T14:28:21;52.64;45.07;56.78;;
72858;Laerm;62742;52.136;4.500;2023-03-23T14:30:54;49.93;43.45;56.36;;
72858;Laerm;62742;52.136;4.500;2023-03-23T14:33:25;49.74;43.38;58.01;;
72858;Laerm;62742;52.136;4.500;2023-03-23T14:35:53;49.18;43.00;55.17;;
72858;Laerm;62742;52.136;4.500;2023-03-23T14:38:24;50.59;43.81;55.87;;
72858;Laerm;62742;52.136;4.500;2023-03-23T14:40:59;47.76;42.77;54.60;;
72858;Laerm;62742;52.136;4.500;2023-03-23T14:43:28;46.44;42.25;54.22;;
72858;Laerm;62742;52.136;4.500;2023-03-23T14:45:59;47.66;41.86;53.64;;
72858;Laerm;62742;52.136;4.500;2023-03-23T14:48:26;47.21;41.93;53.39;;
72858;Laerm;62742;52.136;4.500;2023-03-23T14:50:58;48.61;43.16;54.01;;
72858;Laerm;62742;52.136;4.500;2023-03-23T14:53:39;49.37;43.33;56.51;;
72858;Laerm;62742;52.136;4.500;2023-03-23T14:56:14;49.27;44.40;54.84;;
72858;Laerm;62742;52.136;4.500;2023-03-23T14:58:45;51.01;44.52;57.74;;
72858;Laerm;62742;52.136;4.500;2023-03-23T15:01:24;49.12;44.60;53.48;;
72858;Laerm;62742;52.136;4.500;2023-03-23T15:04:01;51.09;44.29;57.41;;
72858;Laerm;62742;52.136;4.500;2023-03-23T15:06:33;50.17;43.57;55.24;;
72858;Laerm;62742;52.136;4.500;2023-03-23T15:09:02;49.62;44.14;56.48;;
72858;Laerm;62742;52.136;4.500;2023-03-23T15:11:32;48.97;44.04;54.28;;
72858;Laerm;62742;52.136;4.500;2023-03-23T15:14:07;47.90;43.39;53.34;;
72858;Laerm;62742;52.136;4.500;2023-03-23T15:16:34;48.74;43.98;55.78;;
72858;Laerm;62742;52.136;4.500;2023-03-23T15:19:04;50.58;44.80;54.78;;
72858;Laerm;62742;52.136;4.500;2023-03-23T15:21:35;47.85;43.88;54.08;;
72858;Laerm;62742;52.136;4.500;2023-03-23T15:24:24;48.82;43.62;55.28;;
72858;Laerm;62742;52.136;4.500;2023-03-23T15:26:51;48.30;43.67;55.01;;
72858;Laerm;62742;52.136;4.500;2023-03-23T15:29:22;48.32;43.50;54.29;;
72858;Laerm;62742;52.136;4.500;2023-03-23T15:31:55;48.89;43.48;54.56;;
72858;Laerm;62742;52.136;4.500;2023-03-23T15:34:33;47.96;43.49;54.59;;
72858;Laerm;62742;52.136;4.500;2023-03-23T15:39:45;46.91;42.68;53.68;;
72858;Laerm;62742;52.136;4.500;2023-03-23T15:42:32;48.39;43.71;56.16;;
72858;Laerm;62742;52.136;4.500;2023-03-23T15:50:16;48.92;42.96;54.92;;
72858;Laerm;62742;52.136;4.500;2023-03-23T15:52:44;50.41;43.02;55.74;;